Time;durP1;ratioP1;P1;durP2;ratioP2;P2;SDS_P1;SDS_P2;PMS_P1;PMS_P2;Temp;Humidity;BMP_temperature;BMP_pressure;BME280_temperature;BME280_humidity;BME280_pressure;Samples;Min_cycle;Max_cycle;Signal;HPM_P1;HPM_P2
2023/07/12 00:00:29;;;;;;;6.17;3.30;;;;;;;;;;5069907;28;20016;-65
2023/07/12 00:02:57;;;;;;;3.97;3.58;;;;;;;;;;5067017;28;20044;-62
2023/07/12 00:05:23;;;;;;;;;;;;;;;;;;5074581;28;20028;-64
2023/07/12 00:07:48;;;;;;;6.78;4.80;;;;;;;;;;5072575;28;19908;-64
2023/07/12 00:10:18;;;;;;;5.83;2.90;;;;;;;;;;5072038;28;20025;-63
2023/07/12 00:12:43;;;;;;;4.90;3.03;;;;;;;;;;5072037;28;20165;-63
2023/07/12 00:15:10;;;;;;;3.57;3.27;;;;;;;;;;5073628;28;20071;-63
2023/07/12 00:17:35;;;;;;;3.35;2.30;;;;;;;;;;5071794;28;20177;-62
2023/07/12 00:20:00;;;;;;;4.60;3.27;;;;;;;;;;5073223;28;20570;-63
2023/07/12 00:22:26;;;;;;;5.55;3.38;;;;;;;;;;5072461;28;20041;-63
2023/07/12 00:24:51;;;;;;;5.10;4.60;;;;;;;;;;5073321;28;20013;-63
2023/07/12 00:27:16;;;;;;;3.53;2.95;;;;;;;;;;5071904;28;20059;-63
2023/07/12 00:29:41;;;;;;;6.93;3.30;;;;;;;;;;5073614;28;20096;-63
2023/07/12 00:32:07;;;;;;;3.33;3.03;;;;;;;;;;5071578;28;20510;-64
2023/07/12 00:34:33;;;;;;;4.97;3.70;;;;;;;;;;5073546;28;20017;-64
2023/07/12 00:36:58;;;;;;;6.88;2.88;;;;;;;;;;5071429;28;20052;-64
2023/07/12 00:39:23;;;;;;;4.63;3.38;;;;;;;;;;5072996;28;20467;-64
2023/07/12 00:42:09;;;;;;;3.80;2.80;;;;;;;;;;5070833;28;20037;-63
2023/07/12 00:44:42;;;;;;;5.05;2.97;;;;;;;;;;5073457;28;20039;-64
2023/07/12 00:47:10;;;;;;;4.85;3.95;;;;;;;;;;5069993;28;20527;-63
2023/07/12 00:49:35;;;;;;;6.53;3.03;;;;;;;;;;5072991;28;20025;-64
2023/07/12 00:52:04;;;;;;;6.68;3.28;;;;;;;;;;5071632;28;20041;-63
2023/07/12 00:54:48;;;;;;;5.57;3.95;;;;;;;;;;5071461;28;20016;-63
2023/07/12 00:57:13;;;;;;;3.78;3.08;;;;;;;;;;5071361;28;20097;-63
2023/07/12 00:59:39;;;;;;;7.82;3.33;;;;;;;;;;5072755;28;20025;-63
2023/07/12 01:02:04;;;;;;;3.88;2.63;;;;;;;;;;5070812;28;20032;-63
2023/07/12 01:04:35;;;;;;;5.03;3.53;;;;;;;;;;5072945;28;20051;-63
2023/07/12 01:07:01;;;;;;;5.07;3.63;;;;;;;;;;5071178;28;20040;-62
2023/07/12 01:09:27;;;;;;;5.30;3.97;;;;;;;;;;5072458;28;20123;-63
2023/07/12 01:11:52;;;;;;;6.15;3.00;;;;;;;;;;5071385;28;20036;-62
2023/07/12 01:14:17;;;;;;;5.15;3.92;;;;;;;;;;5072397;28;20013;-62
2023/07/12 01:16:45;;;;;;;3.83;3.53;;;;;;;;;;5070158;28;20039;-62
2023/07/12 01:19:10;;;;;;;5.55;3.88;;;;;;;;;;5072440;28;20012;-63
2023/07/12 01:21:37;;;;;;;5.55;3.72;;;;;;;;;;5071143;28;20037;-62
2023/07/12 01:24:02;;;;;;;4.00;3.33;;;;;;;;;;5071963;28;20470;-63
2023/07/12 01:26:35;;;;;;;6.85;4.45;;;;;;;;;;5071129;28;20032;-63
2023/07/12 01:29:02;;;;;;;5.07;4.53;;;;;;;;;;5072231;28;20027;-63
2023/07/12 01:31:28;;;;;;;8.70;5.55;;;;;;;;;;5070832;28;20036;-62
2023/07/12 01:33:53;;;;;;;12.60;5.75;;;;;;;;;;5072499;28;20020;-63
2023/07/12 01:36:19;;;;;;;11.27;5.45;;;;;;;;;;5070933;28;20202;-62
2023/07/12 01:38:46;;;;;;;7.05;4.65;;;;;;;;;;5071693;28;20048;-63
2023/07/12 01:41:11;;;;;;;20.63;7.65;;;;;;;;;;5070236;28;20099;-62
2023/07/12 01:43:36;;;;;;;7.17;5.27;;;;;;;;;;5072102;28;20172;-63
2023/07/12 01:46:02;;;;;;;5.68;4.75;;;;;;;;;;5071362;28;20043;-63
2023/07/12 01:48:27;;;;;;;7.23;5.53;;;;;;;;;;5070574;28;20072;-63
2023/07/12 01:50:52;;;;;;;6.80;5.43;;;;;;;;;;5071634;28;20023;-64
2023/07/12 01:53:18;;;;;;;14.07;5.68;;;;;;;;;;5069902;28;20454;-64
2023/07/12 01:55:43;;;;;;;9.47;5.53;;;;;;;;;;5071848;28;20035;-64
2023/07/12 01:58:08;;;;;;;8.63;5.38;;;;;;;;;;5070026;28;20090;-64
2023/07/12 02:00:33;;;;;;;5.95;5.35;;;;;;;;;;5071360;28;20016;-63
2023/07/12 02:02:58;;;;;;;6.90;5.50;;;;;;;;;;5069809;28;20033;-63
2023/07/12 02:05:24;;;;;;;9.48;4.90;;;;;;;;;;5071877;28;20058;-63
2023/07/12 02:07:51;;;;;;;13.03;7.20;;;;;;;;;;5070019;28;20123;-62
2023/07/12 02:10:18;;;;;;;5.00;4.57;;;;;;;;;;5071369;28;20019;-63
2023/07/12 02:12:43;;;;;;;11.38;4.80;;;;;;;;;;5070302;28;20041;-63
2023/07/12 02:15:09;;;;;;;5.37;4.53;;;;;;;;;;5071292;28;20016;-63
2023/07/12 02:17:35;;;;;;;5.63;4.80;;;;;;;;;;5069571;28;20495;-63
2023/07/12 02:20:00;;;;;;;11.32;6.90;;;;;;;;;;5071447;28;20046;-63
2023/07/12 02:22:28;;;;;;;11.47;4.93;;;;;;;;;;5068306;28;20036;-62
2023/07/12 02:24:53;;;;;;;9.23;5.22;;;;;;;;;;5071104;28;20434;-62
2023/07/12 02:27:18;;;;;;;14.73;5.85;;;;;;;;;;5069624;28;20033;-62
2023/07/12 02:29:43;;;;;;;9.43;4.80;;;;;;;;;;5070659;28;20067;-63
2023/07/12 02:32:08;;;;;;;8.85;4.47;;;;;;;;;;5069675;28;20451;-63
2023/07/12 02:34:33;;;;;;;6.70;6.00;;;;;;;;;;5069895;28;20024;-63
2023/07/12 02:36:59;;;;;;;8.43;6.13;;;;;;;;;;5068653;28;20040;-63
2023/07/12 02:39:24;;;;;;;11.25;7.53;;;;;;;;;;5070937;28;20360;-63
2023/07/12 02:41:49;;;;;;;10.57;5.00;;;;;;;;;;5069870;28;20075;-63
2023/07/12 02:44:14;;;;;;;7.47;4.57;;;;;;;;;;5070715;28;20506;-63
2023/07/12 02:46:39;;;;;;;14.18;5.43;;;;;;;;;;5069380;28;20546;-62
2023/07/12 02:49:04;;;;;;;15.77;6.30;;;;;;;;;;5070907;28;20027;-62
2023/07/12 02:51:29;;;;;;;6.15;4.85;;;;;;;;;;5069393;28;20024;-62
2023/07/12 02:53:55;;;;;;;7.22;4.60;;;;;;;;;;5070660;28;20402;-62
2023/07/12 02:56:20;;;;;;;7.88;4.30;;;;;;;;;;5069555;28;20017;-62
2023/07/12 02:58:45;;;;;;;11.85;5.65;;;;;;;;;;5070342;28;20076;-62
2023/07/12 03:01:11;;;;;;;11.80;5.25;;;;;;;;;;5069273;28;20474;-62
2023/07/12 03:03:36;;;;;;;12.32;4.95;;;;;;;;;;5071199;28;20012;-62
2023/07/12 03:06:05;;;;;;;16.48;5.53;;;;;;;;;;5070278;28;20024;-61
2023/07/12 03:08:30;;;;;;;9.90;6.95;;;;;;;;;;5069566;28;20043;-61
2023/07/12 03:10:57;;;;;;;10.90;5.07;;;;;;;;;;5070405;28;20479;-62
2023/07/12 03:13:22;;;;;;;19.95;7.93;;;;;;;;;;5068780;28;20032;-62
2023/07/12 03:15:47;;;;;;;9.60;5.22;;;;;;;;;;5070612;28;20438;-61
2023/07/12 03:18:13;;;;;;;9.27;5.05;;;;;;;;;;5068987;28;20041;-61
2023/07/12 03:20:38;;;;;;;11.83;5.37;;;;;;;;;;5070476;28;20023;-61
2023/07/12 03:23:03;;;;;;;9.02;4.30;;;;;;;;;;5068980;28;20439;-63
2023/07/12 03:25:28;;;;;;;11.73;7.20;;;;;;;;;;5070723;28;20019;-63
2023/07/12 03:27:53;;;;;;;19.38;7.60;;;;;;;;;;5068919;28;20150;-63
2023/07/12 03:30:18;;;;;;;8.55;5.65;;;;;;;;;;5070642;28;20020;-63
2023/07/12 03:32:44;;;;;;;8.17;5.33;;;;;;;;;;5068790;28;20037;-63
2023/07/12 03:35:09;;;;;;;16.33;6.10;;;;;;;;;;5070039;28;20051;-63
2023/07/12 03:37:34;;;;;;;9.98;4.88;;;;;;;;;;5069007;28;20094;-63
2023/07/12 03:39:59;;;;;;;17.33;6.15;;;;;;;;;;5073505;28;20372;-63
2023/07/12 03:42:25;;;;;;;15.87;5.97;;;;;;;;;;5073077;28;20029;-63
2023/07/12 03:44:50;;;;;;;15.15;5.80;;;;;;;;;;5074108;28;20029;-62
2023/07/12 03:47:15;;;;;;;9.27;4.95;;;;;;;;;;5072906;28;20025;-63
2023/07/12 03:49:40;;;;;;;12.18;6.10;;;;;;;;;;5074287;28;20078;-63
2023/07/12 03:52:05;;;;;;;13.73;5.93;;;;;;;;;;5072396;28;20032;-66
2023/07/12 03:54:31;;;;;;;18.08;5.00;;;;;;;;;;5074363;28;20517;-62
2023/07/12 03:56:56;;;;;;;14.45;5.90;;;;;;;;;;5072326;28;20036;-62
2023/07/12 03:59:21;;;;;;;13.70;6.45;;;;;;;;;;5073973;28;20407;-62
2023/07/12 04:01:46;;;;;;;13.82;5.00;;;;;;;;;;5072585;28;20033;-62
2023/07/12 04:04:11;;;;;;;12.73;5.20;;;;;;;;;;5073477;28;20095;-62
2023/07/12 04:06:36;;;;;;;7.27;4.93;;;;;;;;;;5072283;28;20032;-62
2023/07/12 04:09:02;;;;;;;11.30;5.90;;;;;;;;;;5060331;28;20096;-62
2023/07/12 04:11:30;;;;;;;11.90;4.55;;;;;;;;;;5060581;28;20033;-67
2023/07/12 04:13:56;;;;;;;19.15;5.97;;;;;;;;;;5054149;28;20029;-64
2023/07/12 04:16:23;;;;;;;13.82;6.28;;;;;;;;;;5053673;28;20028;-65
2023/07/12 04:18:48;;;;;;;12.30;5.63;;;;;;;;;;5053463;28;20027;-63
2023/07/12 04:21:13;;;;;;;13.23;5.67;;;;;;;;;;5052916;28;20024;-62
2023/07/12 04:23:38;;;;;;;11.70;6.07;;;;;;;;;;5067444;28;20480;-63
2023/07/12 04:26:04;;;;;;;12.20;5.13;;;;;;;;;;5073217;28;20009;-60
2023/07/12 04:28:31;;;;;;;11.15;5.65;;;;;;;;;;5072823;28;20465;-62
2023/07/12 04:30:56;;;;;;;8.77;5.20;;;;;;;;;;5067377;28;20106;-63
2023/07/12 04:33:23;;;;;;;12.02;6.28;;;;;;;;;;5062875;28;20491;-63
2023/07/12 04:35:48;;;;;;;15.38;6.90;;;;;;;;;;5053011;28;20049;-62
2023/07/12 04:38:13;;;;;;;8.00;4.65;;;;;;;;;;5051515;28;20060;-63
2023/07/12 04:40:38;;;;;;;10.80;5.45;;;;;;;;;;5053349;28;20106;-63
2023/07/12 04:43:03;;;;;;;9.95;4.47;;;;;;;;;;5051394;28;20037;-63
2023/07/12 04:45:29;;;;;;;7.43;4.63;;;;;;;;;;5063716;28;20509;-63
2023/07/12 04:47:54;;;;;;;12.45;6.70;;;;;;;;;;5059879;28;20048;-63
2023/07/12 04:50:19;;;;;;;10.68;4.68;;;;;;;;;;5051686;28;20029;-64
2023/07/12 04:52:45;;;;;;;8.52;4.53;;;;;;;;;;5051957;28;20112;-63
2023/07/12 04:55:24;;;;;;;5.68;4.10;;;;;;;;;;5053127;28;20016;-63
2023/07/12 04:57:49;;;;;;;7.35;5.18;;;;;;;;;;5051116;28;20033;-63
2023/07/12 05:00:14;;;;;;;10.73;4.03;;;;;;;;;;5052754;28;20017;-63
2023/07/12 05:02:39;;;;;;;16.35;5.47;;;;;;;;;;5051621;28;20466;-63
2023/07/12 05:05:05;;;;;;;7.75;4.40;;;;;;;;;;5052255;28;20105;-63
2023/07/12 05:07:31;;;;;;;8.45;4.05;;;;;;;;;;5051514;28;20523;-63
2023/07/12 05:09:56;;;;;;;8.40;5.18;;;;;;;;;;5052811;28;20027;-63
2023/07/12 05:12:21;;;;;;;7.87;4.17;;;;;;;;;;5051194;28;20025;-63
2023/07/12 05:14:46;;;;;;;17.80;5.07;;;;;;;;;;5052482;28;20124;-64
2023/07/12 05:17:11;;;;;;;10.83;5.07;;;;;;;;;;5060210;28;20399;-64
2023/07/12 05:19:37;;;;;;;11.65;5.80;;;;;;;;;;5072315;28;20457;-65
2023/07/12 05:22:02;;;;;;;8.10;4.73;;;;;;;;;;5070683;28;20024;-64
2023/07/12 05:24:27;;;;;;;12.20;5.55;;;;;;;;;;5072888;28;20012;-64
2023/07/12 05:26:52;;;;;;;9.75;5.20;;;;;;;;;;5070812;28;20032;-65
2023/07/12 05:29:17;;;;;;;9.60;6.23;;;;;;;;;;5072086;28;20032;-64
2023/07/12 05:31:42;;;;;;;7.17;5.87;;;;;;;;;;5071041;28;20033;-64
2023/07/12 05:34:08;;;;;;;7.63;6.75;;;;;;;;;;5071869;28;20490;-65
2023/07/12 05:36:33;;;;;;;11.82;7.72;;;;;;;;;;5070938;28;20048;-64
2023/07/12 05:38:58;;;;;;;16.00;8.90;;;;;;;;;;5071823;28;20028;-63
2023/07/12 05:41:23;;;;;;;14.85;7.88;;;;;;;;;;5070452;28;20395;-61
2023/07/12 05:43:48;;;;;;;10.80;8.32;;;;;;;;;;5072155;28;20026;-63
2023/07/12 05:46:13;;;;;;;20.65;10.93;;;;;;;;;;5060748;28;20052;-63
2023/07/12 05:48:39;;;;;;;12.67;8.70;;;;;;;;;;5051889;28;20455;-63
2023/07/12 05:51:04;;;;;;;13.43;9.75;;;;;;;;;;5050863;28;20067;-60
2023/07/12 05:53:29;;;;;;;15.32;11.23;;;;;;;;;;5052450;28;20021;-63
2023/07/12 05:55:55;;;;;;;13.47;10.60;;;;;;;;;;5051688;28;20519;-63
2023/07/12 05:58:20;;;;;;;23.73;11.85;;;;;;;;;;5050354;28;21010;-63
2023/07/12 06:00:46;;;;;;;11.03;9.27;;;;;;;;;;5051597;28;20021;-63
2023/07/12 06:03:11;;;;;;;16.02;10.32;;;;;;;;;;5049572;28;20041;-63
2023/07/12 06:05:40;;;;;;;12.07;10.60;;;;;;;;;;5051814;28;20028;-63
2023/07/12 06:08:05;;;;;;;19.05;10.23;;;;;;;;;;5050265;28;20029;-63
2023/07/12 06:10:30;;;;;;;22.23;11.60;;;;;;;;;;5051637;28;20547;-63
2023/07/12 06:12:55;;;;;;;19.65;10.70;;;;;;;;;;5049700;28;20116;-63
2023/07/12 06:15:21;;;;;;;16.20;12.68;;;;;;;;;;5051603;28;20013;-63
2023/07/12 06:17:47;;;;;;;18.02;12.55;;;;;;;;;;5050133;28;20109;-63
2023/07/12 06:20:12;;;;;;;20.93;13.47;;;;;;;;;;5051195;28;20150;-63
2023/07/12 06:22:37;;;;;;;20.73;12.38;;;;;;;;;;5050183;28;20033;-63
2023/07/12 06:25:02;;;;;;;17.90;14.13;;;;;;;;;;5051169;28;20013;-63
2023/07/12 06:27:27;;;;;;;21.85;13.38;;;;;;;;;;5049698;28;20726;-62
2023/07/12 06:29:52;;;;;;;18.75;13.00;;;;;;;;;;5051411;28;20095;-63
2023/07/12 06:32:18;;;;;;;17.80;13.77;;;;;;;;;;5049742;28;20040;-62
2023/07/12 06:34:43;;;;;;;16.20;13.67;;;;;;;;;;5049797;28;20052;-61
2023/07/12 06:37:08;;;;;;;18.33;12.70;;;;;;;;;;5047946;28;20047;-61
2023/07/12 06:39:34;;;;;;;24.50;14.77;;;;;;;;;;5050059;28;20487;-61
2023/07/12 06:42:01;;;;;;;21.77;14.18;;;;;;;;;;5048103;28;20044;-62
2023/07/12 06:44:26;;;;;;;15.23;11.23;;;;;;;;;;5050112;28;20591;-62
2023/07/12 06:46:51;;;;;;;14.85;12.45;;;;;;;;;;5049135;28;20025;-62
2023/07/12 06:49:17;;;;;;;14.67;11.00;;;;;;;;;;5050731;28;20429;-59
2023/07/12 06:51:46;;;;;;;22.70;13.15;;;;;;;;;;5047960;28;20045;-60
2023/07/12 06:54:11;;;;;;;18.13;12.55;;;;;;;;;;5047253;28;20575;-60
2023/07/12 06:56:36;;;;;;;18.45;11.05;;;;;;;;;;5053623;28;20115;-60
2023/07/12 06:59:01;;;;;;;15.07;10.07;;;;;;;;;;5057209;28;20017;-62
2023/07/12 07:01:27;;;;;;;15.00;10.63;;;;;;;;;;5049573;28;20447;-61
2023/07/12 07:03:52;;;;;;;12.90;9.50;;;;;;;;;;5050304;28;20105;-61
2023/07/12 07:06:19;;;;;;;15.10;10.23;;;;;;;;;;5049190;28;20091;-61
2023/07/12 07:08:44;;;;;;;14.05;10.10;;;;;;;;;;5050914;28;20055;-61
2023/07/12 07:11:10;;;;;;;16.63;9.30;;;;;;;;;;5061572;28;20487;-60
2023/07/12 07:13:35;;;;;;;23.33;8.50;;;;;;;;;;5069870;28;20094;-61
2023/07/12 07:16:00;;;;;;;12.27;7.82;;;;;;;;;;5070272;28;20039;-61
2023/07/12 07:18:25;;;;;;;15.35;8.80;;;;;;;;;;5068728;28;20033;-61
2023/07/12 07:20:51;;;;;;;15.68;9.73;;;;;;;;;;5070677;28;20028;-61
2023/07/12 07:23:16;;;;;;;12.77;9.10;;;;;;;;;;5068917;28;20373;-61
2023/07/12 07:25:41;;;;;;;13.10;9.30;;;;;;;;;;5070506;28;20471;-60
2023/07/12 07:28:06;;;;;;;10.53;8.13;;;;;;;;;;5068780;28;20497;-60
2023/07/12 07:30:32;;;;;;;15.57;8.27;;;;;;;;;;5070483;28;20008;-60
2023/07/12 07:32:57;;;;;;;9.70;7.93;;;;;;;;;;5068614;28;20028;-61
2023/07/12 07:35:23;;;;;;;21.20;7.75;;;;;;;;;;5070544;28;20484;-60
2023/07/12 07:37:49;;;;;;;9.15;6.88;;;;;;;;;;5067643;28;20028;-60
2023/07/12 07:40:14;;;;;;;10.40;5.33;;;;;;;;;;5069969;28;20021;-60
2023/07/12 07:42:40;;;;;;;7.65;6.85;;;;;;;;;;5068899;28;20120;-60
2023/07/12 07:45:05;;;;;;;7.93;6.00;;;;;;;;;;5070047;28;20082;-60
2023/07/12 07:47:30;;;;;;;8.55;6.32;;;;;;;;;;5068745;28;20041;-60
2023/07/12 07:49:55;;;;;;;14.10;7.40;;;;;;;;;;5070017;28;20017;-60
2023/07/12 07:52:21;;;;;;;12.82;5.38;;;;;;;;;;5069064;28;20067;-60
2023/07/12 07:54:46;;;;;;;8.73;5.35;;;;;;;;;;5070004;28;20460;-60
2023/07/12 07:57:11;;;;;;;8.45;5.30;;;;;;;;;;5068624;28;20028;-60
2023/07/12 07:59:36;;;;;;;13.82;5.97;;;;;;;;;;5070382;28;20025;-60
2023/07/12 08:02:02;;;;;;;21.23;8.10;;;;;;;;;;5068190;28;20143;-60
2023/07/12 08:04:27;;;;;;;12.55;5.65;;;;;;;;;;5070494;28;20344;-60
2023/07/12 08:06:52;;;;;;;10.33;5.57;;;;;;;;;;5068621;28;20033;-60
2023/07/12 08:09:17;;;;;;;11.40;6.32;;;;;;;;;;5069766;28;20020;-60
2023/07/12 08:11:42;;;;;;;15.53;4.80;;;;;;;;;;5067256;28;20028;-60
2023/07/12 08:14:08;;;;;;;10.13;4.97;;;;;;;;;;5063253;28;20443;-59
2023/07/12 08:16:35;;;;;;;17.17;7.43;;;;;;;;;;5051814;28;20445;-61
2023/07/12 08:19:01;;;;;;;12.83;5.40;;;;;;;;;;5069643;28;20025;-60
2023/07/12 08:21:26;;;;;;;9.90;5.03;;;;;;;;;;5053758;28;20446;-60
2023/07/12 08:23:51;;;;;;;8.73;5.22;;;;;;;;;;5049561;28;20139;-59
2023/07/12 08:26:19;;;;;;;11.18;5.05;;;;;;;;;;5051602;28;20740;-60
2023/07/12 08:28:44;;;;;;;12.90;6.43;;;;;;;;;;5053780;28;20020;-59
2023/07/12 08:31:09;;;;;;;12.17;5.97;;;;;;;;;;5051814;28;20027;-59
2023/07/12 08:33:34;;;;;;;11.57;6.43;;;;;;;;;;5053294;28;20048;-59
2023/07/12 08:36:00;;;;;;;7.83;5.23;;;;;;;;;;5053088;28;20072;-59
2023/07/12 08:38:31;;;;;;;9.18;4.90;;;;;;;;;;5051847;28;20047;-59
2023/07/12 08:40:57;;;;;;;9.30;5.70;;;;;;;;;;5053109;28;20044;-59
2023/07/12 08:43:25;;;;;;;11.73;6.25;;;;;;;;;;5051780;28;20087;-59
2023/07/12 08:45:52;;;;;;;13.18;6.20;;;;;;;;;;5059690;28;20490;-59
2023/07/12 08:48:19;;;;;;;18.85;5.68;;;;;;;;;;5071294;28;20037;-59
2023/07/12 08:50:45;;;;;;;10.48;4.90;;;;;;;;;;5073024;28;20422;-59
2023/07/12 08:53:18;;;;;;;8.35;4.00;;;;;;;;;;5071603;28;20082;-59
2023/07/12 08:55:44;;;;;;;11.40;4.78;;;;;;;;;;5072882;28;20539;-59
2023/07/12 08:58:26;;;;;;;18.90;8.32;;;;;;;;;;5071124;28;20117;-60
2023/07/12 09:00:54;;;;;;;10.48;4.53;;;;;;;;;;5072701;28;20016;-60
2023/07/12 09:03:19;;;;;;;21.85;5.40;;;;;;;;;;5071528;28;20029;-60
2023/07/12 09:05:45;;;;;;;8.03;3.47;;;;;;;;;;5073205;28;20059;-60
2023/07/12 09:08:17;;;;;;;10.40;4.03;;;;;;;;;;5071134;28;20432;-60
2023/07/12 09:11:02;;;;;;;12.68;5.68;;;;;;;;;;5073000;28;20089;-59
2023/07/12 09:13:35;;;;;;;12.52;4.43;;;;;;;;;;5071087;28;20399;-60
2023/07/12 09:16:00;;;;;;;10.88;3.85;;;;;;;;;;5072245;28;20025;-60
2023/07/12 09:18:30;;;;;;;21.85;5.15;;;;;;;;;;5071081;28;20120;-59
2023/07/12 09:20:56;;;;;;;8.32;4.20;;;;;;;;;;5072559;28;20031;-59
2023/07/12 09:23:22;;;;;;;14.43;4.60;;;;;;;;;;5070694;28;20044;-59
2023/07/12 09:25:52;;;;;;;11.90;3.90;;;;;;;;;;5072953;28;20024;-60
2023/07/12 09:28:17;;;;;;;9.23;4.45;;;;;;;;;;5070989;28;20597;-60
2023/07/12 09:30:42;;;;;;;11.85;3.13;;;;;;;;;;5072659;28;20277;-60
2023/07/12 09:33:16;;;;;;;14.40;4.38;;;;;;;;;;5070719;28;20394;-60
2023/07/12 09:35:45;;;;;;;13.88;5.72;;;;;;;;;;5072096;28;20075;-61
2023/07/12 09:38:12;;;;;;;9.70;5.43;;;;;;;;;;5070070;28;20103;-60
2023/07/12 09:40:39;;;;;;;8.45;4.00;;;;;;;;;;5072222;28;20020;-60
2023/07/12 09:43:11;;;;;;;8.63;4.38;;;;;;;;;;5070500;28;20488;-59
2023/07/12 09:45:36;;;;;;;8.65;4.68;;;;;;;;;;5067529;28;20024;-60
2023/07/12 09:48:20;;;;;;;9.95;4.20;;;;;;;;;;5050508;28;20029;-60
2023/07/12 09:50:54;;;;;;;9.75;3.88;;;;;;;;;;5052172;28;20051;-60
2023/07/12 09:53:34;;;;;;;10.10;4.40;;;;;;;;;;5049939;28;20053;-68
2023/07/12 09:56:05;;;;;;;9.30;3.63;;;;;;;;;;5051995;28;20057;-60
2023/07/12 09:58:50;;;;;;;13.32;5.85;;;;;;;;;;5050481;28;20033;-59
2023/07/12 10:01:27;;;;;;;10.68;4.30;;;;;;;;;;5049769;28;20028;-59
2023/07/12 10:03:56;;;;;;;6.88;4.07;;;;;;;;;;5051815;28;20021;-60
2023/07/12 10:06:41;;;;;;;13.13;4.35;;;;;;;;;;5050618;28;20503;-60
2023/07/12 10:09:10;;;;;;;5.93;4.00;;;;;;;;;;5050859;28;20036;-60
2023/07/12 10:11:44;;;;;;;8.77;4.80;;;;;;;;;;5066896;28;20041;-60
2023/07/12 10:14:10;;;;;;;17.23;5.38;;;;;;;;;;5071245;28;20055;-60
2023/07/12 10:16:43;;;;;;;6.18;3.85;;;;;;;;;;5069438;28;20060;-60
2023/07/12 10:19:23;;;;;;;10.68;3.67;;;;;;;;;;5070788;28;20029;-60
2023/07/12 10:21:49;;;;;;;9.32;3.83;;;;;;;;;;5069613;28;20031;-60
2023/07/12 10:24:15;;;;;;;6.22;3.00;;;;;;;;;;5070378;28;20146;-60
2023/07/12 10:26:41;;;;;;;7.50;4.28;;;;;;;;;;5069990;28;20049;-60
2023/07/12 10:29:10;;;;;;;9.95;5.22;;;;;;;;;;5070987;28;20055;-60
2023/07/12 10:31:40;;;;;;;7.40;3.70;;;;;;;;;;5069718;28;20177;-60
2023/07/12 10:34:17;;;;;;;8.68;3.65;;;;;;;;;;5069173;28;20028;-60
2023/07/12 10:36:43;;;;;;;6.40;3.83;;;;;;;;;;5063344;28;20191;-60
2023/07/12 10:39:09;;;;;;;13.82;5.80;;;;;;;;;;5050420;28;20477;-60
2023/07/12 10:41:38;;;;;;;6.97;3.20;;;;;;;;;;5049875;28;20041;-60
2023/07/12 10:44:05;;;;;;;13.32;4.82;;;;;;;;;;5051189;28;20040;-60
2023/07/12 10:46:38;;;;;;;4.68;4.22;;;;;;;;;;5049504;28;20033;-60
2023/07/12 10:49:09;;;;;;;10.70;4.60;;;;;;;;;;5050863;28;20040;-60
2023/07/12 10:51:39;;;;;;;10.32;3.60;;;;;;;;;;5049482;28;20033;-60
2023/07/12 10:54:05;;;;;;;6.65;3.00;;;;;;;;;;5050404;28;20024;-62
2023/07/12 10:56:35;;;;;;;10.27;3.45;;;;;;;;;;5049825;28;20424;-60
2023/07/12 10:59:02;;;;;;;9.35;4.03;;;;;;;;;;5050641;28;20108;-60
2023/07/12 11:01:38;;;;;;;6.53;2.60;;;;;;;;;;5049187;28;20535;-60
2023/07/12 11:04:13;;;;;;;7.20;3.00;;;;;;;;;;5050877;28;20017;-61
2023/07/12 11:06:56;;;;;;;9.23;3.92;;;;;;;;;;5049206;28;20611;-60
2023/07/12 11:09:21;;;;;;;6.95;3.15;;;;;;;;;;5050777;28;20464;-60
2023/07/12 11:11:57;;;;;;;7.28;3.83;;;;;;;;;;5049342;28;20037;-60
2023/07/12 11:14:44;;;;;;;12.90;3.22;;;;;;;;;;5050287;28;20025;-60
2023/07/12 11:17:09;;;;;;;6.38;2.88;;;;;;;;;;5049223;28;20040;-60
2023/07/12 11:19:40;;;;;;;7.30;3.10;;;;;;;;;;5050274;28;20079;-60
2023/07/12 11:22:19;;;;;;;7.13;4.45;;;;;;;;;;5048602;28;20033;-60
2023/07/12 11:24:49;;;;;;;7.70;3.28;;;;;;;;;;5050711;28;20063;-60
2023/07/12 11:27:32;;;;;;;7.43;2.90;;;;;;;;;;5048932;28;20041;-60
2023/07/12 11:30:07;;;;;;;10.57;3.75;;;;;;;;;;5049960;28;20017;-61
2023/07/12 11:32:36;;;;;;;7.97;3.67;;;;;;;;;;5049015;28;20541;-61
2023/07/12 11:35:04;;;;;;;8.25;3.45;;;;;;;;;;5049997;28;20044;-60
2023/07/12 11:37:37;;;;;;;11.05;4.20;;;;;;;;;;5081003;28;20037;-61
2023/07/12 11:40:14;;;;;;;10.05;2.65;;;;;;;;;;5050140;28;20021;-59
2023/07/12 11:42:40;;;;;;;9.95;2.55;;;;;;;;;;5049152;28;20037;-59
2023/07/12 11:45:08;;;;;;;5.00;2.67;;;;;;;;;;5049737;28;20028;-63
2023/07/12 11:47:34;;;;;;;8.20;3.53;;;;;;;;;;5042772;28;20519;-60
2023/07/12 11:50:00;;;;;;;7.45;2.70;;;;;;;;;;5066291;28;20029;-60
2023/07/12 11:52:26;;;;;;;13.35;3.10;;;;;;;;;;5068747;28;20033;-60
2023/07/12 11:54:53;;;;;;;8.07;3.55;;;;;;;;;;5052477;28;20443;-60
2023/07/12 11:57:18;;;;;;;10.50;3.45;;;;;;;;;;5048773;28;20033;-60
2023/07/12 11:59:45;;;;;;;8.63;2.75;;;;;;;;;;5050771;28;20036;-59
2023/07/12 12:02:20;;;;;;;7.70;3.42;;;;;;;;;;5052465;28;20071;-61
2023/07/12 12:04:48;;;;;;;11.18;3.15;;;;;;;;;;5053707;28;20033;-60
2023/07/12 12:07:23;;;;;;;7.20;3.28;;;;;;;;;;5066093;28;20033;-59
2023/07/12 12:09:49;;;;;;;8.13;2.50;;;;;;;;;;5054016;28;20409;-58
2023/07/12 12:12:20;;;;;;;8.13;3.72;;;;;;;;;;5051068;28;20040;-58
2023/07/12 12:14:47;;;;;;;5.28;3.28;;;;;;;;;;5053664;28;20054;-59
2023/07/12 12:17:13;;;;;;;8.13;3.22;;;;;;;;;;5051772;28;20033;-60
2023/07/12 12:19:39;;;;;;;6.35;3.30;;;;;;;;;;5053104;28;20024;-59
2023/07/12 12:22:12;;;;;;;12.23;4.70;;;;;;;;;;5051958;28;20033;-59
2023/07/12 12:24:41;;;;;;;19.45;5.00;;;;;;;;;;5053874;28;20657;-59
2023/07/12 12:27:17;;;;;;;12.75;3.95;;;;;;;;;;5052159;28;20036;-61
2023/07/12 12:29:42;;;;;;;5.07;2.88;;;;;;;;;;5053461;28;20104;-59
2023/07/12 12:32:12;;;;;;;8.30;3.67;;;;;;;;;;5052021;28;20065;-59
2023/07/12 12:34:47;;;;;;;9.38;4.15;;;;;;;;;;5053888;28;20021;-59
2023/07/12 12:37:16;;;;;;;4.70;2.88;;;;;;;;;;5051581;28;20500;-59
2023/07/12 12:39:47;;;;;;;8.32;3.22;;;;;;;;;;5053663;28;20051;-59
2023/07/12 12:42:17;;;;;;;7.05;3.67;;;;;;;;;;5050697;28;20029;-59
2023/07/12 12:44:42;;;;;;;7.85;2.88;;;;;;;;;;5052701;28;20017;-59
2023/07/12 12:47:13;;;;;;;10.30;4.10;;;;;;;;;;5064864;28;20067;-59
2023/07/12 12:49:39;;;;;;;7.28;4.57;;;;;;;;;;5072006;28;20052;-59
2023/07/12 12:52:24;;;;;;;9.33;2.60;;;;;;;;;;5069021;28;20114;-59
2023/07/12 12:54:49;;;;;;;5.50;3.55;;;;;;;;;;5053304;28;20032;-59
2023/07/12 12:57:14;;;;;;;7.32;3.40;;;;;;;;;;5051401;28;20033;-59
2023/07/12 12:59:39;;;;;;;8.23;3.93;;;;;;;;;;5052420;28;20507;-60
2023/07/12 13:02:12;;;;;;;6.97;3.00;;;;;;;;;;5050185;28;20049;-60
2023/07/12 13:04:37;;;;;;;9.77;3.92;;;;;;;;;;5053061;28;20029;-59
2023/07/12 13:07:04;;;;;;;7.22;3.55;;;;;;;;;;5050168;28;20091;-59
2023/07/12 13:09:29;;;;;;;11.57;3.50;;;;;;;;;;5053027;28;20029;-59
2023/07/12 13:11:54;;;;;;;8.40;4.45;;;;;;;;;;5050292;28;20048;-59
2023/07/12 13:14:20;;;;;;;8.03;3.27;;;;;;;;;;5052786;28;20067;-59
2023/07/12 13:16:45;;;;;;;8.40;3.92;;;;;;;;;;5051366;28;20041;-59
2023/07/12 13:19:11;;;;;;;9.17;4.10;;;;;;;;;;5052677;28;20017;-59
2023/07/12 13:21:36;;;;;;;6.53;3.00;;;;;;;;;;5050721;28;20474;-59
2023/07/12 13:24:01;;;;;;;8.77;3.93;;;;;;;;;;5052451;28;20113;-59
2023/07/12 13:26:27;;;;;;;9.07;2.90;;;;;;;;;;5051246;28;20037;-59
2023/07/12 13:28:52;;;;;;;14.00;5.10;;;;;;;;;;5052198;28;20027;-59
2023/07/12 13:31:18;;;;;;;12.60;4.25;;;;;;;;;;5050728;28;20014;-66
2023/07/12 13:33:44;;;;;;;12.30;4.05;;;;;;;;;;5052576;28;20024;-63
2023/07/12 13:36:24;;;;;;;7.88;4.10;;;;;;;;;;5050249;28;20049;-60
2023/07/12 13:38:49;;;;;;;9.98;3.97;;;;;;;;;;5052222;28;20108;-60
2023/07/12 13:41:14;;;;;;;5.38;3.17;;;;;;;;;;5050612;28;20122;-59
2023/07/12 13:43:40;;;;;;;7.28;3.53;;;;;;;;;;5052281;28;20017;-59
2023/07/12 13:46:11;;;;;;;7.43;3.50;;;;;;;;;;5050305;28;20559;-58
2023/07/12 13:48:36;;;;;;;17.73;5.55;;;;;;;;;;5062723;28;20029;-59
2023/07/12 13:51:01;;;;;;;11.23;4.80;;;;;;;;;;5070289;28;20660;-60
2023/07/12 13:53:27;;;;;;;6.55;3.17;;;;;;;;;;5067231;28;20966;-60
2023/07/12 13:55:52;;;;;;;5.55;2.58;;;;;;;;;;5051855;28;20025;-59
2023/07/12 13:58:17;;;;;;;3.87;3.40;;;;;;;;;;5049800;28;20041;-59
2023/07/12 14:00:42;;;;;;;8.93;3.73;;;;;;;;;;5051847;28;20770;-59
2023/07/12 14:03:08;;;;;;;7.07;3.10;;;;;;;;;;5050161;28;20059;-60
2023/07/12 14:05:34;;;;;;;10.45;4.68;;;;;;;;;;5053942;28;21017;-64
2023/07/12 14:08:00;;;;;;;9.93;3.88;;;;;;;;;;5069749;28;20112;-61
2023/07/12 14:10:26;;;;;;;6.18;3.55;;;;;;;;;;5071951;28;20031;-61
2023/07/12 14:12:51;;;;;;;6.80;2.47;;;;;;;;;;5069702;28;20407;-61
2023/07/12 14:15:19;;;;;;;9.52;3.17;;;;;;;;;;5053461;28;20071;-61
2023/07/12 14:17:45;;;;;;;4.43;2.30;;;;;;;;;;5050080;28;20039;-61
2023/07/12 14:20:10;;;;;;;6.28;2.75;;;;;;;;;;5050768;28;20104;-61
2023/07/12 14:22:36;;;;;;;6.95;3.00;;;;;;;;;;5049970;28;20044;-60
2023/07/12 14:25:01;;;;;;;9.40;3.78;;;;;;;;;;5051338;28;20049;-61
2023/07/12 14:27:28;;;;;;;9.47;3.47;;;;;;;;;;5049706;28;20624;-61
2023/07/12 14:29:55;;;;;;;8.73;2.33;;;;;;;;;;5051239;28;20447;-61
2023/07/12 14:32:21;;;;;;;7.53;2.83;;;;;;;;;;5050028;28;20033;-61
2023/07/12 14:34:47;;;;;;;7.95;2.75;;;;;;;;;;5051048;28;20021;-60